sensor_id;sensor_type;location;lat;lon;timestamp;P1;durP1;ratioP1;P2;durP2;ratioP2
12846;SDS011;6492;48.128;8.320;2024-02-21T00:03:19;5.03;;;2.70;;
12846;SDS011;6492;48.128;8.320;2024-02-21T00:07:22;6.67;;;3.10;;
12846;SDS011;6492;48.128;8.320;2024-02-21T00:11:24;5.57;;;3.07;;
12846;SDS011;6492;48.128;8.320;2024-02-21T00:15:32;5.77;;;3.03;;
12846;SDS011;6492;48.128;8.320;2024-02-21T00:19:33;5.53;;;2.80;;
12846;SDS011;6492;48.128;8.320;2024-02-21T00:23:37;6.93;;;2.90;;
12846;SDS011;6492;48.128;8.320;2024-02-21T00:27:38;7.00;;;2.80;;
12846;SDS011;6492;48.128;8.320;2024-02-21T00:31:40;6.40;;;3.03;;
12846;SDS011;6492;48.128;8.320;2024-02-21T00:35:42;4.20;;;2.60;;
12846;SDS011;6492;48.128;8.320;2024-02-21T00:39:45;6.67;;;3.13;;
12846;SDS011;6492;48.128;8.320;2024-02-21T00:43:47;5.37;;;3.23;;
12846;SDS011;6492;48.128;8.320;2024-02-21T00:47:50;6.80;;;3.57;;
12846;SDS011;6492;48.128;8.320;2024-02-21T00:51:51;4.13;;;2.63;;
12846;SDS011;6492;48.128;8.320;2024-02-21T00:55:55;6.33;;;2.67;;
12846;SDS011;6492;48.128;8.320;2024-02-21T00:59:56;4.37;;;2.77;;
12846;SDS011;6492;48.128;8.320;2024-02-21T01:03:58;3.67;;;2.30;;
12846;SDS011;6492;48.128;8.320;2024-02-21T01:08:00;3.93;;;2.90;;
12846;SDS011;6492;48.128;8.320;2024-02-21T01:12:03;4.17;;;2.87;;
12846;SDS011;6492;48.128;8.320;2024-02-21T01:16:06;4.00;;;2.67;;
12846;SDS011;6492;48.128;8.320;2024-02-21T01:20:08;6.50;;;3.07;;
12846;SDS011;6492;48.128;8.320;2024-02-21T01:24:10;9.60;;;3.40;;
12846;SDS011;6492;48.128;8.320;2024-02-21T01:28:13;6.40;;;3.00;;
12846;SDS011;6492;48.128;8.320;2024-02-21T01:32:15;6.63;;;3.10;;
12846;SDS011;6492;48.128;8.320;2024-02-21T01:36:17;6.13;;;2.80;;
12846;SDS011;6492;48.128;8.320;2024-02-21T01:40:19;4.53;;;2.33;;
12846;SDS011;6492;48.128;8.320;2024-02-21T01:44:22;4.97;;;2.30;;
12846;SDS011;6492;48.128;8.320;2024-02-21T01:48:24;7.93;;;3.17;;
12846;SDS011;6492;48.128;8.320;2024-02-21T01:52:26;5.40;;;2.60;;
12846;SDS011;6492;48.128;8.320;2024-02-21T01:56:28;7.23;;;2.40;;
12846;SDS011;6492;48.128;8.320;2024-02-21T02:00:32;4.83;;;2.73;;
12846;SDS011;6492;48.128;8.320;2024-02-21T02:04:34;5.93;;;2.57;;
12846;SDS011;6492;48.128;8.320;2024-02-21T02:08:36;3.67;;;2.60;;
12846;SDS011;6492;48.128;8.320;2024-02-21T02:12:50;5.07;;;2.80;;
12846;SDS011;6492;48.128;8.320;2024-02-21T02:16:54;6.57;;;2.63;;
12846;SDS011;6492;48.128;8.320;2024-02-21T02:20:55;4.80;;;2.20;;
12846;SDS011;6492;48.128;8.320;2024-02-21T02:24:58;10.50;;;3.23;;
12846;SDS011;6492;48.128;8.320;2024-02-21T02:29:01;5.30;;;2.47;;
12846;SDS011;6492;48.128;8.320;2024-02-21T02:33:03;7.10;;;2.43;;
12846;SDS011;6492;48.128;8.320;2024-02-21T02:37:05;6.03;;;2.67;;
12846;SDS011;6492;48.128;8.320;2024-02-21T02:41:08;5.37;;;2.47;;
12846;SDS011;6492;48.128;8.320;2024-02-21T02:45:09;8.17;;;2.80;;
12846;SDS011;6492;48.128;8.320;2024-02-21T02:49:11;8.13;;;2.70;;
12846;SDS011;6492;48.128;8.320;2024-02-21T02:53:13;6.40;;;2.40;;
12846;SDS011;6492;48.128;8.320;2024-02-21T02:57:16;3.60;;;2.50;;
12846;SDS011;6492;48.128;8.320;2024-02-21T03:01:18;4.17;;;2.60;;
12846;SDS011;6492;48.128;8.320;2024-02-21T03:05:20;6.83;;;2.30;;
12846;SDS011;6492;48.128;8.320;2024-02-21T03:09:22;4.73;;;2.20;;
12846;SDS011;6492;48.128;8.320;2024-02-21T03:13:26;5.20;;;2.43;;
12846;SDS011;6492;48.128;8.320;2024-02-21T03:17:30;4.30;;;2.20;;
12846;SDS011;6492;48.128;8.320;2024-02-21T03:21:34;4.70;;;2.47;;
12846;SDS011;6492;48.128;8.320;2024-02-21T03:25:36;6.20;;;2.60;;
12846;SDS011;6492;48.128;8.320;2024-02-21T03:29:39;3.67;;;2.20;;
12846;SDS011;6492;48.128;8.320;2024-02-21T03:33:42;4.67;;;2.43;;
12846;SDS011;6492;48.128;8.320;2024-02-21T03:37:44;6.27;;;2.73;;
12846;SDS011;6492;48.128;8.320;2024-02-21T03:41:46;4.57;;;2.40;;
12846;SDS011;6492;48.128;8.320;2024-02-21T03:45:49;5.50;;;2.43;;
12846;SDS011;6492;48.128;8.320;2024-02-21T03:49:51;6.73;;;2.63;;
12846;SDS011;6492;48.128;8.320;2024-02-21T03:53:53;4.80;;;2.00;;
12846;SDS011;6492;48.128;8.320;2024-02-21T03:57:54;4.47;;;2.10;;
12846;SDS011;6492;48.128;8.320;2024-02-21T04:01:57;3.27;;;2.10;;
12846;SDS011;6492;48.128;8.320;2024-02-21T04:06:00;5.77;;;2.50;;
12846;SDS011;6492;48.128;8.320;2024-02-21T04:10:02;3.93;;;2.03;;
12846;SDS011;6492;48.128;8.320;2024-02-21T04:14:04;3.73;;;2.30;;
12846;SDS011;6492;48.128;8.320;2024-02-21T04:18:07;5.30;;;2.10;;
12846;SDS011;6492;48.128;8.320;2024-02-21T04:22:09;2.93;;;2.20;;
12846;SDS011;6492;48.128;8.320;2024-02-21T04:26:11;5.77;;;2.60;;
12846;SDS011;6492;48.128;8.320;2024-02-21T04:30:13;6.13;;;2.87;;
12846;SDS011;6492;48.128;8.320;2024-02-21T04:34:17;5.20;;;3.00;;
12846;SDS011;6492;48.128;8.320;2024-02-21T04:38:18;5.23;;;2.40;;
12846;SDS011;6492;48.128;8.320;2024-02-21T04:42:20;4.90;;;2.13;;
12846;SDS011;6492;48.128;8.320;2024-02-21T04:46:22;4.03;;;2.30;;
12846;SDS011;6492;48.128;8.320;2024-02-21T04:50:25;6.20;;;2.20;;
12846;SDS011;6492;48.128;8.320;2024-02-21T04:54:27;6.00;;;1.80;;
12846;SDS011;6492;48.128;8.320;2024-02-21T04:58:29;2.60;;;1.90;;
12846;SDS011;6492;48.128;8.320;2024-02-21T05:02:31;2.87;;;1.90;;
12846;SDS011;6492;48.128;8.320;2024-02-21T05:06:38;3.80;;;2.00;;
12846;SDS011;6492;48.128;8.320;2024-02-21T05:10:40;7.17;;;2.20;;
12846;SDS011;6492;48.128;8.320;2024-02-21T05:14:42;3.40;;;2.27;;
12846;SDS011;6492;48.128;8.320;2024-02-21T05:18:44;5.93;;;2.57;;
12846;SDS011;6492;48.128;8.320;2024-02-21T05:22:54;2.50;;;2.00;;
12846;SDS011;6492;48.128;8.320;2024-02-21T05:26:56;3.07;;;2.07;;
12846;SDS011;6492;48.128;8.320;2024-02-21T05:31:01;3.70;;;2.50;;
12846;SDS011;6492;48.128;8.320;2024-02-21T05:35:03;7.17;;;3.27;;
12846;SDS011;6492;48.128;8.320;2024-02-21T05:39:06;5.60;;;3.50;;
12846;SDS011;6492;48.128;8.320;2024-02-21T05:43:08;5.37;;;3.60;;
12846;SDS011;6492;48.128;8.320;2024-02-21T05:47:09;5.23;;;3.20;;
12846;SDS011;6492;48.128;8.320;2024-02-21T05:51:15;5.83;;;5.13;;
12846;SDS011;6492;48.128;8.320;2024-02-21T05:55:18;3.37;;;2.53;;
12846;SDS011;6492;48.128;8.320;2024-02-21T05:59:20;8.60;;;2.53;;
12846;SDS011;6492;48.128;8.320;2024-02-21T06:03:21;4.47;;;2.33;;
12846;SDS011;6492;48.128;8.320;2024-02-21T06:07:29;3.47;;;1.87;;
12846;SDS011;6492;48.128;8.320;2024-02-21T06:11:37;6.30;;;2.70;;
12846;SDS011;6492;48.128;8.320;2024-02-21T06:15:38;7.20;;;3.33;;
12846;SDS011;6492;48.128;8.320;2024-02-21T06:19:40;4.97;;;3.60;;
12846;SDS011;6492;48.128;8.320;2024-02-21T06:23:44;20.60;;;10.73;;
12846;SDS011;6492;48.128;8.320;2024-02-21T06:27:47;11.33;;;6.73;;
12846;SDS011;6492;48.128;8.320;2024-02-21T06:31:48;8.50;;;5.90;;
12846;SDS011;6492;48.128;8.320;2024-02-21T06:35:50;5.20;;;2.97;;
12846;SDS011;6492;48.128;8.320;2024-02-21T06:39:53;3.10;;;2.37;;
12846;SDS011;6492;48.128;8.320;2024-02-21T06:43:57;5.67;;;3.80;;
12846;SDS011;6492;48.128;8.320;2024-02-21T06:47:59;7.20;;;4.13;;
12846;SDS011;6492;48.128;8.320;2024-02-21T06:52:01;4.53;;;3.17;;
12846;SDS011;6492;48.128;8.320;2024-02-21T06:56:03;3.17;;;2.50;;
12846;SDS011;6492;48.128;8.320;2024-02-21T07:00:20;3.40;;;2.30;;
12846;SDS011;6492;48.128;8.320;2024-02-21T07:04:22;6.67;;;3.50;;
12846;SDS011;6492;48.128;8.320;2024-02-21T07:12:51;5.67;;;3.40;;
12846;SDS011;6492;48.128;8.320;2024-02-21T07:16:54;5.87;;;2.70;;
12846;SDS011;6492;48.128;8.320;2024-02-21T07:20:57;6.00;;;2.03;;
12846;SDS011;6492;48.128;8.320;2024-02-21T07:29:22;3.57;;;2.00;;
12846;SDS011;6492;48.128;8.320;2024-02-21T07:33:25;2.50;;;1.73;;
12846;SDS011;6492;48.128;8.320;2024-02-21T07:37:38;2.43;;;1.70;;
12846;SDS011;6492;48.128;8.320;2024-02-21T07:41:40;3.07;;;1.60;;
12846;SDS011;6492;48.128;8.320;2024-02-21T07:45:43;2.30;;;1.70;;
12846;SDS011;6492;48.128;8.320;2024-02-21T07:49:46;1.97;;;1.50;;
12846;SDS011;6492;48.128;8.320;2024-02-21T07:53:48;6.43;;;1.63;;
12846;SDS011;6492;48.128;8.320;2024-02-21T07:57:50;4.80;;;2.13;;
12846;SDS011;6492;48.128;8.320;2024-02-21T08:01:58;2.67;;;1.60;;
12846;SDS011;6492;48.128;8.320;2024-02-21T08:06:02;3.37;;;1.10;;
12846;SDS011;6492;48.128;8.320;2024-02-21T08:10:05;1.53;;;1.20;;
12846;SDS011;6492;48.128;8.320;2024-02-21T08:14:08;2.40;;;1.30;;
12846;SDS011;6492;48.128;8.320;2024-02-21T08:18:09;2.27;;;1.60;;
12846;SDS011;6492;48.128;8.320;2024-02-21T08:22:15;3.03;;;1.10;;
12846;SDS011;6492;48.128;8.320;2024-02-21T08:26:16;3.30;;;1.13;;
12846;SDS011;6492;48.128;8.320;2024-02-21T08:30:18;1.97;;;1.43;;
12846;SDS011;6492;48.128;8.320;2024-02-21T08:34:21;1.87;;;0.90;;
12846;SDS011;6492;48.128;8.320;2024-02-21T08:38:24;1.03;;;1.00;;
12846;SDS011;6492;48.128;8.320;2024-02-21T08:42:29;1.40;;;1.10;;
12846;SDS011;6492;48.128;8.320;2024-02-21T08:46:30;1.10;;;1.00;;
12846;SDS011;6492;48.128;8.320;2024-02-21T08:50:32;2.57;;;1.30;;
12846;SDS011;6492;48.128;8.320;2024-02-21T08:54:35;2.40;;;1.57;;
12846;SDS011;6492;48.128;8.320;2024-02-21T08:58:38;3.80;;;2.60;;
12846;SDS011;6492;48.128;8.320;2024-02-21T09:02:41;6.90;;;2.40;;
12846;SDS011;6492;48.128;8.320;2024-02-21T09:06:45;2.33;;;1.50;;
12846;SDS011;6492;48.128;8.320;2024-02-21T09:10:49;3.33;;;1.40;;
12846;SDS011;6492;48.128;8.320;2024-02-21T09:14:50;2.27;;;1.67;;
12846;SDS011;6492;48.128;8.320;2024-02-21T09:23:14;3.47;;;2.70;;
12846;SDS011;6492;48.128;8.320;2024-02-21T09:27:18;2.47;;;2.17;;
12846;SDS011;6492;48.128;8.320;2024-02-21T09:31:19;1.37;;;1.10;;
12846;SDS011;6492;48.128;8.320;2024-02-21T09:35:21;2.63;;;1.50;;
12846;SDS011;6492;48.128;8.320;2024-02-21T09:39:30;1.90;;;1.33;;
12846;SDS011;6492;48.128;8.320;2024-02-21T09:43:33;1.97;;;0.93;;
12846;SDS011;6492;48.128;8.320;2024-02-21T09:47:40;1.47;;;1.00;;
12846;SDS011;6492;48.128;8.320;2024-02-21T09:51:51;0.80;;;0.80;;
12846;SDS011;6492;48.128;8.320;2024-02-21T09:55:56;0.93;;;0.83;;
12846;SDS011;6492;48.128;8.320;2024-02-21T10:00:00;1.83;;;1.20;;
12846;SDS011;6492;48.128;8.320;2024-02-21T10:04:07;4.17;;;3.20;;
12846;SDS011;6492;48.128;8.320;2024-02-21T10:08:15;2.23;;;1.17;;
12846;SDS011;6492;48.128;8.320;2024-02-21T10:12:20;1.73;;;1.23;;
12846;SDS011;6492;48.128;8.320;2024-02-21T10:16:23;1.70;;;1.60;;
12846;SDS011;6492;48.128;8.320;2024-02-21T10:20:25;2.83;;;1.70;;
12846;SDS011;6492;48.128;8.320;2024-02-21T10:24:27;2.67;;;1.30;;
12846;SDS011;6492;48.128;8.320;2024-02-21T10:28:30;2.37;;;1.37;;
12846;SDS011;6492;48.128;8.320;2024-02-21T10:32:33;2.33;;;1.43;;
12846;SDS011;6492;48.128;8.320;2024-02-21T10:36:35;1.10;;;0.70;;
12846;SDS011;6492;48.128;8.320;2024-02-21T10:40:39;1.20;;;0.70;;
12846;SDS011;6492;48.128;8.320;2024-02-21T10:44:42;0.77;;;0.50;;
12846;SDS011;6492;48.128;8.320;2024-02-21T10:48:57;0.87;;;0.60;;
12846;SDS011;6492;48.128;8.320;2024-02-21T10:53:08;0.83;;;0.73;;
12846;SDS011;6492;48.128;8.320;2024-02-21T10:57:25;2.33;;;1.30;;
12846;SDS011;6492;48.128;8.320;2024-02-21T11:01:29;0.73;;;0.40;;
12846;SDS011;6492;48.128;8.320;2024-02-21T11:05:33;0.70;;;0.70;;
12846;SDS011;6492;48.128;8.320;2024-02-21T11:09:35;1.00;;;0.70;;
12846;SDS011;6492;48.128;8.320;2024-02-21T11:13:37;0.40;;;0.40;;
12846;SDS011;6492;48.128;8.320;2024-02-21T11:17:39;0.40;;;0.40;;
12846;SDS011;6492;48.128;8.320;2024-02-21T11:21:42;0.33;;;0.33;;
12846;SDS011;6492;48.128;8.320;2024-02-21T11:25:44;0.60;;;0.40;;
12846;SDS011;6492;48.128;8.320;2024-02-21T11:30:04;0.60;;;0.60;;
12846;SDS011;6492;48.128;8.320;2024-02-21T11:34:08;0.83;;;0.63;;
12846;SDS011;6492;48.128;8.320;2024-02-21T11:38:12;0.50;;;0.50;;
12846;SDS011;6492;48.128;8.320;2024-02-21T11:42:16;0.87;;;0.60;;
12846;SDS011;6492;48.128;8.320;2024-02-21T11:46:17;1.20;;;0.60;;
12846;SDS011;6492;48.128;8.320;2024-02-21T11:50:20;1.03;;;0.93;;
12846;SDS011;6492;48.128;8.320;2024-02-21T11:54:25;0.40;;;0.40;;
12846;SDS011;6492;48.128;8.320;2024-02-21T11:58:27;0.60;;;0.50;;
12846;SDS011;6492;48.128;8.320;2024-02-21T12:02:30;0.67;;;0.30;;
12846;SDS011;6492;48.128;8.320;2024-02-21T12:06:32;0.40;;;0.40;;
12846;SDS011;6492;48.128;8.320;2024-02-21T12:10:36;0.50;;;0.50;;
12846;SDS011;6492;48.128;8.320;2024-02-21T12:14:38;0.70;;;0.70;;
12846;SDS011;6492;48.128;8.320;2024-02-21T12:18:40;1.30;;;1.20;;
12846;SDS011;6492;48.128;8.320;2024-02-21T12:22:59;0.60;;;0.60;;
12846;SDS011;6492;48.128;8.320;2024-02-21T12:27:03;0.50;;;0.50;;
12846;SDS011;6492;48.128;8.320;2024-02-21T12:31:05;0.40;;;0.40;;
12846;SDS011;6492;48.128;8.320;2024-02-21T12:35:07;0.63;;;0.40;;
12846;SDS011;6492;48.128;8.320;2024-02-21T12:39:09;0.77;;;0.60;;
12846;SDS011;6492;48.128;8.320;2024-02-21T12:43:13;0.43;;;0.43;;
12846;SDS011;6492;48.128;8.320;2024-02-21T12:47:15;0.57;;;0.57;;
12846;SDS011;6492;48.128;8.320;2024-02-21T12:51:18;0.63;;;0.57;;
12846;SDS011;6492;48.128;8.320;2024-02-21T12:55:21;0.60;;;0.57;;
12846;SDS011;6492;48.128;8.320;2024-02-21T12:59:24;0.87;;;0.67;;
12846;SDS011;6492;48.128;8.320;2024-02-21T13:03:28;1.00;;;0.60;;
12846;SDS011;6492;48.128;8.320;2024-02-21T13:07:30;1.50;;;1.20;;
12846;SDS011;6492;48.128;8.320;2024-02-21T13:11:32;1.17;;;0.60;;
12846;SDS011;6492;48.128;8.320;2024-02-21T13:15:36;1.53;;;1.43;;
12846;SDS011;6492;48.128;8.320;2024-02-21T13:19:42;0.60;;;0.60;;
12846;SDS011;6492;48.128;8.320;2024-02-21T13:23:44;1.80;;;1.00;;
12846;SDS011;6492;48.128;8.320;2024-02-21T13:27:46;0.63;;;0.60;;
12846;SDS011;6492;48.128;8.320;2024-02-21T13:31:49;1.10;;;1.00;;
12846;SDS011;6492;48.128;8.320;2024-02-21T13:36:04;0.80;;;0.80;;
12846;SDS011;6492;48.128;8.320;2024-02-21T13:40:07;0.50;;;0.50;;
12846;SDS011;6492;48.128;8.320;2024-02-21T13:44:10;1.67;;;1.00;;
12846;SDS011;6492;48.128;8.320;2024-02-21T13:48:13;1.53;;;1.43;;
12846;SDS011;6492;48.128;8.320;2024-02-21T13:52:15;2.37;;;0.97;;
12846;SDS011;6492;48.128;8.320;2024-02-21T13:56:17;0.83;;;0.70;;
12846;SDS011;6492;48.128;8.320;2024-02-21T14:00:19;0.57;;;0.53;;
12846;SDS011;6492;48.128;8.320;2024-02-21T14:04:22;0.93;;;0.77;;
12846;SDS011;6492;48.128;8.320;2024-02-21T14:08:24;1.77;;;1.10;;
12846;SDS011;6492;48.128;8.320;2024-02-21T14:12:26;1.70;;;0.67;;
12846;SDS011;6492;48.128;8.320;2024-02-21T14:16:27;0.67;;;0.63;;
12846;SDS011;6492;48.128;8.320;2024-02-21T14:20:31;0.80;;;0.80;;
12846;SDS011;6492;48.128;8.320;2024-02-21T14:24:32;1.70;;;0.90;;
12846;SDS011;6492;48.128;8.320;2024-02-21T14:28:34;1.20;;;0.80;;
12846;SDS011;6492;48.128;8.320;2024-02-21T14:32:36;0.53;;;0.50;;
12846;SDS011;6492;48.128;8.320;2024-02-21T14:36:39;0.67;;;0.67;;
12846;SDS011;6492;48.128;8.320;2024-02-21T14:40:41;1.00;;;0.53;;
12846;SDS011;6492;48.128;8.320;2024-02-21T14:44:43;0.63;;;0.63;;
12846;SDS011;6492;48.128;8.320;2024-02-21T14:48:45;1.03;;;0.70;;
12846;SDS011;6492;48.128;8.320;2024-02-21T14:52:48;0.60;;;0.60;;
12846;SDS011;6492;48.128;8.320;2024-02-21T14:56:49;2.80;;;1.87;;
12846;SDS011;6492;48.128;8.320;2024-02-21T15:00:51;2.80;;;2.00;;
12846;SDS011;6492;48.128;8.320;2024-02-21T15:04:54;5.90;;;4.40;;
12846;SDS011;6492;48.128;8.320;2024-02-21T15:08:57;1.83;;;0.90;;
12846;SDS011;6492;48.128;8.320;2024-02-21T15:12:59;8.07;;;5.57;;
12846;SDS011;6492;48.128;8.320;2024-02-21T15:17:01;0.70;;;0.70;;
12846;SDS011;6492;48.128;8.320;2024-02-21T15:21:03;2.20;;;2.10;;
12846;SDS011;6492;48.128;8.320;2024-02-21T15:25:07;1.13;;;0.80;;
12846;SDS011;6492;48.128;8.320;2024-02-21T15:29:14;0.77;;;0.77;;
12846;SDS011;6492;48.128;8.320;2024-02-21T15:33:16;0.50;;;0.50;;
12846;SDS011;6492;48.128;8.320;2024-02-21T15:37:18;0.70;;;0.63;;
12846;SDS011;6492;48.128;8.320;2024-02-21T15:41:21;0.70;;;0.70;;
12846;SDS011;6492;48.128;8.320;2024-02-21T15:45:23;1.53;;;1.20;;
12846;SDS011;6492;48.128;8.320;2024-02-21T15:49:24;0.60;;;0.40;;
12846;SDS011;6492;48.128;8.320;2024-02-21T15:53:27;0.97;;;0.90;;
12846;SDS011;6492;48.128;8.320;2024-02-21T15:57:30;0.73;;;0.50;;
12846;SDS011;6492;48.128;8.320;2024-02-21T16:05:52;1.10;;;0.80;;
12846;SDS011;6492;48.128;8.320;2024-02-21T16:09:54;0.70;;;0.70;;
12846;SDS011;6492;48.128;8.320;2024-02-21T16:14:00;0.70;;;0.70;;
12846;SDS011;6492;48.128;8.320;2024-02-21T16:18:02;0.97;;;0.70;;
12846;SDS011;6492;48.128;8.320;2024-02-21T16:22:07;0.60;;;0.60;;
12846;SDS011;6492;48.128;8.320;2024-02-21T16:26:09;0.90;;;0.90;;
12846;SDS011;6492;48.128;8.320;2024-02-21T16:30:13;0.60;;;0.60;;
12846;SDS011;6492;48.128;8.320;2024-02-21T16:34:16;0.67;;;0.50;;
12846;SDS011;6492;48.128;8.320;2024-02-21T16:38:18;0.93;;;0.90;;
12846;SDS011;6492;48.128;8.320;2024-02-21T16:42:20;1.27;;;0.67;;
12846;SDS011;6492;48.128;8.320;2024-02-21T16:46:23;0.97;;;0.73;;
12846;SDS011;6492;48.128;8.320;2024-02-21T16:50:26;1.00;;;0.90;;
12846;SDS011;6492;48.128;8.320;2024-02-21T16:54:27;0.53;;;0.50;;
12846;SDS011;6492;48.128;8.320;2024-02-21T16:58:29;1.13;;;0.70;;
12846;SDS011;6492;48.128;8.320;2024-02-21T17:02:37;1.20;;;0.70;;
12846;SDS011;6492;48.128;8.320;2024-02-21T17:06:40;0.70;;;0.70;;
12846;SDS011;6492;48.128;8.320;2024-02-21T17:10:43;1.10;;;0.70;;
12846;SDS011;6492;48.128;8.320;2024-02-21T17:14:45;1.17;;;0.87;;
12846;SDS011;6492;48.128;8.320;2024-02-21T17:18:48;1.03;;;0.90;;
12846;SDS011;6492;48.128;8.320;2024-02-21T17:22:50;1.10;;;1.00;;
12846;SDS011;6492;48.128;8.320;2024-02-21T17:26:51;0.97;;;0.97;;
12846;SDS011;6492;48.128;8.320;2024-02-21T17:30:53;1.57;;;1.23;;
12846;SDS011;6492;48.128;8.320;2024-02-21T17:34:58;0.70;;;0.63;;
12846;SDS011;6492;48.128;8.320;2024-02-21T17:39:00;0.90;;;0.80;;
12846;SDS011;6492;48.128;8.320;2024-02-21T17:43:08;2.30;;;1.43;;
12846;SDS011;6492;48.128;8.320;2024-02-21T17:47:11;1.07;;;0.97;;
12846;SDS011;6492;48.128;8.320;2024-02-21T17:51:15;3.30;;;2.20;;
12846;SDS011;6492;48.128;8.320;2024-02-21T17:55:17;1.30;;;1.20;;
12846;SDS011;6492;48.128;8.320;2024-02-21T17:59:24;0.80;;;0.80;;
12846;SDS011;6492;48.128;8.320;2024-02-21T18:03:34;0.83;;;0.73;;
12846;SDS011;6492;48.128;8.320;2024-02-21T18:12:02;1.10;;;1.10;;
12846;SDS011;6492;48.128;8.320;2024-02-21T18:16:05;3.50;;;2.77;;
12846;SDS011;6492;48.128;8.320;2024-02-21T18:20:09;1.23;;;1.13;;
12846;SDS011;6492;48.128;8.320;2024-02-21T18:24:12;0.70;;;0.70;;
12846;SDS011;6492;48.128;8.320;2024-02-21T18:28:14;1.10;;;1.00;;
12846;SDS011;6492;48.128;8.320;2024-02-21T18:32:16;1.13;;;0.73;;
12846;SDS011;6492;48.128;8.320;2024-02-21T18:36:18;0.30;;;0.30;;
12846;SDS011;6492;48.128;8.320;2024-02-21T18:40:21;1.17;;;1.07;;
12846;SDS011;6492;48.128;8.320;2024-02-21T18:44:23;1.43;;;1.00;;
12846;SDS011;6492;48.128;8.320;2024-02-21T18:48:25;3.90;;;1.77;;
12846;SDS011;6492;48.128;8.320;2024-02-21T18:52:27;0.60;;;0.50;;
12846;SDS011;6492;48.128;8.320;2024-02-21T18:56:30;0.80;;;0.70;;
12846;SDS011;6492;48.128;8.320;2024-02-21T19:00:32;2.90;;;2.20;;
12846;SDS011;6492;48.128;8.320;2024-02-21T19:04:33;6.47;;;2.73;;
12846;SDS011;6492;48.128;8.320;2024-02-21T19:08:38;1.40;;;1.10;;
12846;SDS011;6492;48.128;8.320;2024-02-21T19:12:41;2.27;;;1.83;;
12846;SDS011;6492;48.128;8.320;2024-02-21T19:16:55;1.80;;;1.40;;
12846;SDS011;6492;48.128;8.320;2024-02-21T19:20:57;2.90;;;2.10;;
12846;SDS011;6492;48.128;8.320;2024-02-21T19:24:59;2.43;;;1.30;;
12846;SDS011;6492;48.128;8.320;2024-02-21T19:29:08;2.83;;;2.17;;
12846;SDS011;6492;48.128;8.320;2024-02-21T19:33:12;2.20;;;2.00;;
12846;SDS011;6492;48.128;8.320;2024-02-21T19:37:13;1.13;;;1.00;;
12846;SDS011;6492;48.128;8.320;2024-02-21T19:41:15;1.63;;;1.30;;
12846;SDS011;6492;48.128;8.320;2024-02-21T19:45:19;1.70;;;1.10;;
12846;SDS011;6492;48.128;8.320;2024-02-21T19:49:22;2.30;;;1.50;;
12846;SDS011;6492;48.128;8.320;2024-02-21T19:53:24;1.83;;;1.10;;
12846;SDS011;6492;48.128;8.320;2024-02-21T19:57:27;1.20;;;1.10;;
12846;SDS011;6492;48.128;8.320;2024-02-21T20:01:37;1.47;;;1.30;;
12846;SDS011;6492;48.128;8.320;2024-02-21T20:05:39;1.30;;;1.03;;
12846;SDS011;6492;48.128;8.320;2024-02-21T20:13:47;1.43;;;1.10;;
12846;SDS011;6492;48.128;8.320;2024-02-21T20:17:51;1.37;;;1.20;;
12846;SDS011;6492;48.128;8.320;2024-02-21T20:21:54;1.50;;;1.40;;
12846;SDS011;6492;48.128;8.320;2024-02-21T20:25:57;1.73;;;0.90;;
12846;SDS011;6492;48.128;8.320;2024-02-21T20:30:01;2.27;;;0.87;;
12846;SDS011;6492;48.128;8.320;2024-02-21T20:34:04;3.53;;;0.90;;
12846;SDS011;6492;48.128;8.320;2024-02-21T20:38:06;1.53;;;0.90;;
12846;SDS011;6492;48.128;8.320;2024-02-21T20:42:08;1.20;;;0.93;;
12846;SDS011;6492;48.128;8.320;2024-02-21T20:46:09;1.17;;;1.07;;
12846;SDS011;6492;48.128;8.320;2024-02-21T20:50:13;1.00;;;0.80;;
12846;SDS011;6492;48.128;8.320;2024-02-21T20:54:14;1.60;;;1.00;;
12846;SDS011;6492;48.128;8.320;2024-02-21T20:58:16;0.70;;;0.63;;
12846;SDS011;6492;48.128;8.320;2024-02-21T21:02:18;0.70;;;0.70;;
12846;SDS011;6492;48.128;8.320;2024-02-21T21:06:21;0.60;;;0.60;;
12846;SDS011;6492;48.128;8.320;2024-02-21T21:10:23;2.63;;;1.40;;
12846;SDS011;6492;48.128;8.320;2024-02-21T21:14:25;1.00;;;0.90;;
12846;SDS011;6492;48.128;8.320;2024-02-21T21:18:28;1.17;;;0.70;;
12846;SDS011;6492;48.128;8.320;2024-02-21T21:22:32;0.67;;;0.43;;
12846;SDS011;6492;48.128;8.320;2024-02-21T21:26:50;0.70;;;0.70;;
12846;SDS011;6492;48.128;8.320;2024-02-21T21:30:52;0.73;;;0.60;;
12846;SDS011;6492;48.128;8.320;2024-02-21T21:34:56;1.10;;;1.00;;
12846;SDS011;6492;48.128;8.320;2024-02-21T21:39:00;1.00;;;0.90;;
12846;SDS011;6492;48.128;8.320;2024-02-21T21:43:04;1.10;;;1.00;;
12846;SDS011;6492;48.128;8.320;2024-02-21T21:47:07;1.30;;;1.20;;
12846;SDS011;6492;48.128;8.320;2024-02-21T21:51:09;1.73;;;1.10;;
12846;SDS011;6492;48.128;8.320;2024-02-21T21:55:12;1.93;;;1.40;;
12846;SDS011;6492;48.128;8.320;2024-02-21T21:59:27;1.93;;;1.23;;
12846;SDS011;6492;48.128;8.320;2024-02-21T22:03:29;2.37;;;1.50;;
12846;SDS011;6492;48.128;8.320;2024-02-21T22:07:31;1.90;;;1.60;;
12846;SDS011;6492;48.128;8.320;2024-02-21T22:11:35;2.07;;;1.83;;
12846;SDS011;6492;48.128;8.320;2024-02-21T22:15:37;2.37;;;1.67;;
12846;SDS011;6492;48.128;8.320;2024-02-21T22:19:39;3.10;;;1.40;;
12846;SDS011;6492;48.128;8.320;2024-02-21T22:23:41;2.90;;;1.83;;
12846;SDS011;6492;48.128;8.320;2024-02-21T22:27:46;2.47;;;2.07;;
12846;SDS011;6492;48.128;8.320;2024-02-21T22:31:47;2.10;;;1.90;;
12846;SDS011;6492;48.128;8.320;2024-02-21T22:35:58;2.70;;;2.20;;
12846;SDS011;6492;48.128;8.320;2024-02-21T22:40:00;1.97;;;1.70;;
12846;SDS011;6492;48.128;8.320;2024-02-21T22:44:04;2.10;;;1.90;;
12846;SDS011;6492;48.128;8.320;2024-02-21T22:48:06;2.20;;;2.00;;
12846;SDS011;6492;48.128;8.320;2024-02-21T22:52:08;2.20;;;1.90;;
12846;SDS011;6492;48.128;8.320;2024-02-21T22:56:10;2.30;;;2.10;;
12846;SDS011;6492;48.128;8.320;2024-02-21T23:00:14;2.40;;;1.90;;
12846;SDS011;6492;48.128;8.320;2024-02-21T23:04:16;2.20;;;2.00;;
12846;SDS011;6492;48.128;8.320;2024-02-21T23:08:18;2.60;;;2.20;;
12846;SDS011;6492;48.128;8.320;2024-02-21T23:12:20;2.10;;;1.90;;
12846;SDS011;6492;48.128;8.320;2024-02-21T23:16:23;2.67;;;2.10;;
12846;SDS011;6492;48.128;8.320;2024-02-21T23:20:25;3.20;;;2.03;;
12846;SDS011;6492;48.128;8.320;2024-02-21T23:24:27;2.50;;;2.30;;
12846;SDS011;6492;48.128;8.320;2024-02-21T23:28:29;2.60;;;1.97;;
12846;SDS011;6492;48.128;8.320;2024-02-21T23:32:32;3.10;;;2.23;;
12846;SDS011;6492;48.128;8.320;2024-02-21T23:36:35;1.83;;;1.67;;
12846;SDS011;6492;48.128;8.320;2024-02-21T23:40:37;2.70;;;1.83;;
12846;SDS011;6492;48.128;8.320;2024-02-21T23:44:39;3.07;;;2.50;;
12846;SDS011;6492;48.128;8.320;2024-02-21T23:48:43;2.93;;;2.27;;
12846;SDS011;6492;48.128;8.320;2024-02-21T23:52:45;3.03;;;2.43;;
12846;SDS011;6492;48.128;8.320;2024-02-21T23:56:46;3.73;;;2.40;;
